sensor_id;sensor_type;location;lat;lon;timestamp;P1;durP1;ratioP1;P2;durP2;ratioP2
21084;SDS011;34247;50.064;19.970;2022-10-16T00:00:00;7.47;;;3.05;;
21084;SDS011;34247;50.064;19.970;2022-10-16T00:01:07;8.55;;;2.35;;
21084;SDS011;34247;50.064;19.970;2022-10-16T00:02:24;6.80;;;3.90;;
21084;SDS011;34247;50.064;19.970;2022-10-16T00:03:38;9.57;;;2.95;;
21084;SDS011;34247;50.064;19.970;2022-10-16T00:04:47;6.95;;;3.78;;
21084;SDS011;34247;50.064;19.970;2022-10-16T00:05:58;6.22;;;2.72;;
21084;SDS011;34247;50.064;19.970;2022-10-16T00:07:04;2.97;;;2.58;;
21084;SDS011;34247;50.064;19.970;2022-10-16T00:08:08;6.20;;;3.10;;
21084;SDS011;34247;50.064;19.970;2022-10-16T00:09:17;4.75;;;3.10;;
21084;SDS011;34247;50.064;19.970;2022-10-16T00:10:21;5.88;;;3.17;;
21084;SDS011;34247;50.064;19.970;2022-10-16T00:11:32;9.82;;;2.40;;
21084;SDS011;34247;50.064;19.970;2022-10-16T00:12:41;5.32;;;3.05;;
21084;SDS011;34247;50.064;19.970;2022-10-16T00:14:05;5.07;;;2.50;;
21084;SDS011;34247;50.064;19.970;2022-10-16T00:15:16;9.02;;;4.32;;
21084;SDS011;34247;50.064;19.970;2022-10-16T00:16:20;7.25;;;2.95;;
21084;SDS011;34247;50.064;19.970;2022-10-16T00:17:26;4.95;;;2.75;;
21084;SDS011;34247;50.064;19.970;2022-10-16T00:18:31;5.45;;;3.70;;
21084;SDS011;34247;50.064;19.970;2022-10-16T00:19:36;4.35;;;2.58;;
21084;SDS011;34247;50.064;19.970;2022-10-16T00:20:49;5.13;;;3.00;;
21084;SDS011;34247;50.064;19.970;2022-10-16T00:21:54;5.25;;;3.33;;
21084;SDS011;34247;50.064;19.970;2022-10-16T00:23:07;7.07;;;3.38;;
21084;SDS011;34247;50.064;19.970;2022-10-16T00:24:11;5.45;;;3.42;;
21084;SDS011;34247;50.064;19.970;2022-10-16T00:25:14;6.53;;;2.90;;
21084;SDS011;34247;50.064;19.970;2022-10-16T00:26:20;6.80;;;4.72;;
21084;SDS011;34247;50.064;19.970;2022-10-16T00:27:24;7.10;;;2.72;;
21084;SDS011;34247;50.064;19.970;2022-10-16T00:28:28;6.90;;;4.15;;
21084;SDS011;34247;50.064;19.970;2022-10-16T00:29:32;5.45;;;3.22;;
21084;SDS011;34247;50.064;19.970;2022-10-16T00:30:40;6.45;;;3.25;;
21084;SDS011;34247;50.064;19.970;2022-10-16T00:31:44;5.88;;;3.28;;
21084;SDS011;34247;50.064;19.970;2022-10-16T00:32:48;4.35;;;2.50;;
21084;SDS011;34247;50.064;19.970;2022-10-16T00:33:52;4.95;;;3.17;;
21084;SDS011;34247;50.064;19.970;2022-10-16T00:34:55;4.13;;;3.08;;
21084;SDS011;34247;50.064;19.970;2022-10-16T00:36:00;5.95;;;3.63;;
21084;SDS011;34247;50.064;19.970;2022-10-16T00:37:06;4.38;;;3.13;;
21084;SDS011;34247;50.064;19.970;2022-10-16T00:38:10;5.13;;;3.03;;
21084;SDS011;34247;50.064;19.970;2022-10-16T00:39:14;6.07;;;3.33;;
21084;SDS011;34247;50.064;19.970;2022-10-16T00:40:22;8.98;;;3.45;;
21084;SDS011;34247;50.064;19.970;2022-10-16T00:41:28;10.52;;;3.67;;
21084;SDS011;34247;50.064;19.970;2022-10-16T00:42:33;4.55;;;3.88;;
21084;SDS011;34247;50.064;19.970;2022-10-16T00:43:55;7.90;;;3.45;;
21084;SDS011;34247;50.064;19.970;2022-10-16T00:45:03;4.82;;;3.20;;
21084;SDS011;34247;50.064;19.970;2022-10-16T00:46:52;8.85;;;3.70;;
21084;SDS011;34247;50.064;19.970;2022-10-16T00:47:45;6.35;;;3.25;;
21084;SDS011;34247;50.064;19.970;2022-10-16T00:49:10;6.30;;;2.92;;
21084;SDS011;34247;50.064;19.970;2022-10-16T00:50:24;4.28;;;2.90;;
21084;SDS011;34247;50.064;19.970;2022-10-16T00:51:35;7.10;;;3.80;;
21084;SDS011;34247;50.064;19.970;2022-10-16T00:52:47;4.57;;;3.20;;
21084;SDS011;34247;50.064;19.970;2022-10-16T00:53:57;5.78;;;3.90;;
21084;SDS011;34247;50.064;19.970;2022-10-16T00:55:03;8.48;;;3.55;;
21084;SDS011;34247;50.064;19.970;2022-10-16T00:56:12;5.55;;;3.33;;
21084;SDS011;34247;50.064;19.970;2022-10-16T00:57:16;6.35;;;3.10;;
21084;SDS011;34247;50.064;19.970;2022-10-16T00:58:21;4.57;;;3.22;;
21084;SDS011;34247;50.064;19.970;2022-10-16T00:59:30;8.70;;;3.30;;
21084;SDS011;34247;50.064;19.970;2022-10-16T01:00:49;9.93;;;3.70;;
21084;SDS011;34247;50.064;19.970;2022-10-16T01:01:53;5.55;;;3.55;;
21084;SDS011;34247;50.064;19.970;2022-10-16T01:03:01;9.27;;;3.97;;
21084;SDS011;34247;50.064;19.970;2022-10-16T01:04:29;7.13;;;3.72;;
21084;SDS011;34247;50.064;19.970;2022-10-16T01:05:45;9.15;;;3.65;;
21084;SDS011;34247;50.064;19.970;2022-10-16T01:08:47;5.90;;;3.85;;
21084;SDS011;34247;50.064;19.970;2022-10-16T01:13:09;5.43;;;3.28;;
21084;SDS011;34247;50.064;19.970;2022-10-16T01:14:34;7.22;;;3.47;;
21084;SDS011;34247;50.064;19.970;2022-10-16T01:15:59;4.55;;;3.00;;
21084;SDS011;34247;50.064;19.970;2022-10-16T01:17:32;4.72;;;3.05;;
21084;SDS011;34247;50.064;19.970;2022-10-16T01:18:57;10.10;;;3.88;;
21084;SDS011;34247;50.064;19.970;2022-10-16T01:21:31;6.85;;;3.92;;
21084;SDS011;34247;50.064;19.970;2022-10-16T01:24:38;11.75;;;4.47;;
21084;SDS011;34247;50.064;19.970;2022-10-16T01:25:59;9.35;;;4.13;;
21084;SDS011;34247;50.064;19.970;2022-10-16T01:27:23;6.72;;;3.90;;
21084;SDS011;34247;50.064;19.970;2022-10-16T01:28:39;8.93;;;3.72;;
21084;SDS011;34247;50.064;19.970;2022-10-16T01:30:16;6.60;;;3.78;;
21084;SDS011;34247;50.064;19.970;2022-10-16T01:31:35;6.95;;;4.25;;
21084;SDS011;34247;50.064;19.970;2022-10-16T01:34:25;9.35;;;4.47;;
21084;SDS011;34247;50.064;19.970;2022-10-16T01:35:44;14.48;;;5.18;;
21084;SDS011;34247;50.064;19.970;2022-10-16T01:36:57;8.23;;;4.13;;
21084;SDS011;34247;50.064;19.970;2022-10-16T01:38:16;10.68;;;4.43;;
21084;SDS011;34247;50.064;19.970;2022-10-16T01:39:41;6.53;;;3.97;;
21084;SDS011;34247;50.064;19.970;2022-10-16T01:40:50;9.43;;;4.45;;
21084;SDS011;34247;50.064;19.970;2022-10-16T01:42:06;6.85;;;3.78;;
21084;SDS011;34247;50.064;19.970;2022-10-16T01:43:20;9.10;;;4.53;;
21084;SDS011;34247;50.064;19.970;2022-10-16T01:44:30;6.60;;;4.60;;
21084;SDS011;34247;50.064;19.970;2022-10-16T01:45:42;6.63;;;4.35;;
21084;SDS011;34247;50.064;19.970;2022-10-16T01:46:50;8.40;;;4.90;;
21084;SDS011;34247;50.064;19.970;2022-10-16T01:47:57;9.43;;;4.53;;
21084;SDS011;34247;50.064;19.970;2022-10-16T01:49:06;6.55;;;4.10;;
21084;SDS011;34247;50.064;19.970;2022-10-16T01:50:16;10.15;;;3.28;;
21084;SDS011;34247;50.064;19.970;2022-10-16T01:51:25;9.95;;;4.43;;
21084;SDS011;34247;50.064;19.970;2022-10-16T01:52:36;6.28;;;4.13;;
21084;SDS011;34247;50.064;19.970;2022-10-16T01:53:51;10.57;;;4.68;;
21084;SDS011;34247;50.064;19.970;2022-10-16T01:55:02;7.10;;;4.40;;
21084;SDS011;34247;50.064;19.970;2022-10-16T01:56:10;9.18;;;4.22;;
21084;SDS011;34247;50.064;19.970;2022-10-16T01:57:19;6.50;;;4.05;;
21084;SDS011;34247;50.064;19.970;2022-10-16T01:58:27;7.25;;;4.50;;
21084;SDS011;34247;50.064;19.970;2022-10-16T01:59:40;8.10;;;4.20;;
21084;SDS011;34247;50.064;19.970;2022-10-16T02:02:26;10.38;;;5.20;;
21084;SDS011;34247;50.064;19.970;2022-10-16T02:04:46;11.75;;;5.47;;
21084;SDS011;34247;50.064;19.970;2022-10-16T02:06:21;9.48;;;3.97;;
21084;SDS011;34247;50.064;19.970;2022-10-16T02:07:34;10.25;;;4.50;;
21084;SDS011;34247;50.064;19.970;2022-10-16T02:10:48;9.05;;;4.13;;
21084;SDS011;34247;50.064;19.970;2022-10-16T02:12:12;6.10;;;4.40;;
21084;SDS011;34247;50.064;19.970;2022-10-16T02:13:36;6.68;;;3.85;;
21084;SDS011;34247;50.064;19.970;2022-10-16T02:14:53;10.13;;;4.05;;
21084;SDS011;34247;50.064;19.970;2022-10-16T02:15:57;12.38;;;4.13;;
21084;SDS011;34247;50.064;19.970;2022-10-16T02:17:09;8.38;;;4.93;;
21084;SDS011;34247;50.064;19.970;2022-10-16T02:18:17;10.73;;;6.43;;
21084;SDS011;34247;50.064;19.970;2022-10-16T02:19:23;11.15;;;4.63;;
21084;SDS011;34247;50.064;19.970;2022-10-16T02:20:32;9.80;;;4.55;;
21084;SDS011;34247;50.064;19.970;2022-10-16T02:21:57;6.55;;;4.03;;
21084;SDS011;34247;50.064;19.970;2022-10-16T02:23:05;10.85;;;5.05;;
21084;SDS011;34247;50.064;19.970;2022-10-16T02:24:19;10.85;;;4.85;;
21084;SDS011;34247;50.064;19.970;2022-10-16T02:25:46;8.77;;;3.60;;
21084;SDS011;34247;50.064;19.970;2022-10-16T02:29:16;9.20;;;4.55;;
21084;SDS011;34247;50.064;19.970;2022-10-16T02:30:30;7.57;;;4.45;;
21084;SDS011;34247;50.064;19.970;2022-10-16T02:31:41;10.07;;;5.03;;
21084;SDS011;34247;50.064;19.970;2022-10-16T02:32:50;8.18;;;4.38;;
21084;SDS011;34247;50.064;19.970;2022-10-16T02:34:07;11.55;;;5.32;;
21084;SDS011;34247;50.064;19.970;2022-10-16T02:35:16;8.55;;;5.07;;
21084;SDS011;34247;50.064;19.970;2022-10-16T02:36:29;7.82;;;4.60;;
21084;SDS011;34247;50.064;19.970;2022-10-16T02:37:36;9.68;;;4.90;;
21084;SDS011;34247;50.064;19.970;2022-10-16T02:38:51;13.13;;;5.85;;
21084;SDS011;34247;50.064;19.970;2022-10-16T02:40:02;10.10;;;5.25;;
21084;SDS011;34247;50.064;19.970;2022-10-16T02:41:12;8.75;;;5.40;;
21084;SDS011;34247;50.064;19.970;2022-10-16T02:42:28;4.97;;;3.72;;
21084;SDS011;34247;50.064;19.970;2022-10-16T02:43:41;6.65;;;4.90;;
21084;SDS011;34247;50.064;19.970;2022-10-16T02:44:46;9.85;;;4.60;;
21084;SDS011;34247;50.064;19.970;2022-10-16T02:45:54;10.88;;;5.35;;
21084;SDS011;34247;50.064;19.970;2022-10-16T02:47:06;9.63;;;4.55;;
21084;SDS011;34247;50.064;19.970;2022-10-16T02:48:13;7.20;;;5.05;;
21084;SDS011;34247;50.064;19.970;2022-10-16T02:49:33;8.93;;;5.18;;
21084;SDS011;34247;50.064;19.970;2022-10-16T02:50:41;8.65;;;4.65;;
21084;SDS011;34247;50.064;19.970;2022-10-16T02:51:55;9.52;;;5.13;;
21084;SDS011;34247;50.064;19.970;2022-10-16T02:52:59;7.85;;;4.65;;
21084;SDS011;34247;50.064;19.970;2022-10-16T02:54:07;6.90;;;4.38;;
21084;SDS011;34247;50.064;19.970;2022-10-16T02:55:15;11.20;;;5.22;;
21084;SDS011;34247;50.064;19.970;2022-10-16T02:56:25;8.95;;;4.22;;
21084;SDS011;34247;50.064;19.970;2022-10-16T02:57:34;4.97;;;3.47;;
21084;SDS011;34247;50.064;19.970;2022-10-16T02:58:57;6.68;;;4.22;;
21084;SDS011;34247;50.064;19.970;2022-10-16T03:00:01;7.57;;;4.28;;
21084;SDS011;34247;50.064;19.970;2022-10-16T03:01:09;11.05;;;4.82;;
21084;SDS011;34247;50.064;19.970;2022-10-16T03:02:25;9.15;;;4.22;;
21084;SDS011;34247;50.064;19.970;2022-10-16T03:03:33;9.65;;;4.85;;
21084;SDS011;34247;50.064;19.970;2022-10-16T03:04:57;8.02;;;4.65;;
21084;SDS011;34247;50.064;19.970;2022-10-16T03:06:05;8.50;;;4.63;;
21084;SDS011;34247;50.064;19.970;2022-10-16T03:07:12;8.82;;;4.75;;
21084;SDS011;34247;50.064;19.970;2022-10-16T03:08:16;5.15;;;4.15;;
21084;SDS011;34247;50.064;19.970;2022-10-16T03:09:20;11.35;;;4.50;;
21084;SDS011;34247;50.064;19.970;2022-10-16T03:10:24;7.97;;;4.07;;
21084;SDS011;34247;50.064;19.970;2022-10-16T03:11:28;5.90;;;4.10;;
21084;SDS011;34247;50.064;19.970;2022-10-16T03:12:32;10.07;;;3.75;;
21084;SDS011;34247;50.064;19.970;2022-10-16T03:13:36;6.18;;;4.40;;
21084;SDS011;34247;50.064;19.970;2022-10-16T03:14:40;6.32;;;4.40;;
21084;SDS011;34247;50.064;19.970;2022-10-16T03:15:43;6.65;;;4.28;;
21084;SDS011;34247;50.064;19.970;2022-10-16T03:16:47;7.05;;;3.65;;
21084;SDS011;34247;50.064;19.970;2022-10-16T03:17:51;9.13;;;4.18;;
21084;SDS011;34247;50.064;19.970;2022-10-16T03:18:55;7.00;;;4.05;;
21084;SDS011;34247;50.064;19.970;2022-10-16T03:19:59;8.63;;;4.07;;
21084;SDS011;34247;50.064;19.970;2022-10-16T03:21:02;7.40;;;3.72;;
21084;SDS011;34247;50.064;19.970;2022-10-16T03:22:06;7.75;;;4.45;;
21084;SDS011;34247;50.064;19.970;2022-10-16T03:23:10;5.10;;;3.33;;
21084;SDS011;34247;50.064;19.970;2022-10-16T03:24:14;5.60;;;3.90;;
21084;SDS011;34247;50.064;19.970;2022-10-16T03:25:18;8.00;;;3.88;;
21084;SDS011;34247;50.064;19.970;2022-10-16T03:26:22;7.15;;;3.78;;
21084;SDS011;34247;50.064;19.970;2022-10-16T03:27:25;7.68;;;4.05;;
21084;SDS011;34247;50.064;19.970;2022-10-16T03:28:30;6.15;;;4.07;;
21084;SDS011;34247;50.064;19.970;2022-10-16T03:29:34;8.45;;;3.83;;
21084;SDS011;34247;50.064;19.970;2022-10-16T03:30:38;13.90;;;5.93;;
21084;SDS011;34247;50.064;19.970;2022-10-16T03:31:42;7.82;;;3.88;;
21084;SDS011;34247;50.064;19.970;2022-10-16T03:32:46;8.75;;;4.97;;
21084;SDS011;34247;50.064;19.970;2022-10-16T03:33:50;9.13;;;4.28;;
21084;SDS011;34247;50.064;19.970;2022-10-16T03:34:54;7.35;;;4.10;;
21084;SDS011;34247;50.064;19.970;2022-10-16T03:35:59;6.40;;;3.63;;
21084;SDS011;34247;50.064;19.970;2022-10-16T03:37:02;8.77;;;4.05;;
21084;SDS011;34247;50.064;19.970;2022-10-16T03:38:06;7.35;;;4.47;;
21084;SDS011;34247;50.064;19.970;2022-10-16T03:39:10;6.95;;;4.35;;
21084;SDS011;34247;50.064;19.970;2022-10-16T03:40:14;7.93;;;4.65;;
21084;SDS011;34247;50.064;19.970;2022-10-16T03:41:18;9.02;;;3.80;;
21084;SDS011;34247;50.064;19.970;2022-10-16T03:42:22;9.60;;;3.63;;
21084;SDS011;34247;50.064;19.970;2022-10-16T03:43:27;12.15;;;4.03;;
21084;SDS011;34247;50.064;19.970;2022-10-16T03:44:31;7.85;;;4.88;;
21084;SDS011;34247;50.064;19.970;2022-10-16T03:45:35;6.95;;;4.18;;
21084;SDS011;34247;50.064;19.970;2022-10-16T03:46:39;5.82;;;3.95;;
21084;SDS011;34247;50.064;19.970;2022-10-16T03:47:43;6.30;;;3.60;;
21084;SDS011;34247;50.064;19.970;2022-10-16T03:48:47;10.07;;;5.05;;
21084;SDS011;34247;50.064;19.970;2022-10-16T03:49:51;6.75;;;4.18;;
21084;SDS011;34247;50.064;19.970;2022-10-16T03:50:55;9.70;;;4.60;;
21084;SDS011;34247;50.064;19.970;2022-10-16T03:51:59;7.38;;;4.22;;
21084;SDS011;34247;50.064;19.970;2022-10-16T03:53:03;10.68;;;4.47;;
21084;SDS011;34247;50.064;19.970;2022-10-16T03:54:07;7.60;;;4.13;;
21084;SDS011;34247;50.064;19.970;2022-10-16T03:55:13;10.32;;;4.45;;
21084;SDS011;34247;50.064;19.970;2022-10-16T03:56:17;10.77;;;4.82;;
21084;SDS011;34247;50.064;19.970;2022-10-16T03:57:20;6.10;;;3.95;;
21084;SDS011;34247;50.064;19.970;2022-10-16T03:58:25;6.60;;;3.92;;
21084;SDS011;34247;50.064;19.970;2022-10-16T03:59:29;8.23;;;4.88;;
21084;SDS011;34247;50.064;19.970;2022-10-16T04:00:34;9.23;;;4.32;;
21084;SDS011;34247;50.064;19.970;2022-10-16T04:01:37;7.97;;;3.88;;
21084;SDS011;34247;50.064;19.970;2022-10-16T04:02:42;7.90;;;4.07;;
21084;SDS011;34247;50.064;19.970;2022-10-16T04:03:45;5.88;;;3.58;;
21084;SDS011;34247;50.064;19.970;2022-10-16T04:04:50;12.65;;;4.15;;
21084;SDS011;34247;50.064;19.970;2022-10-16T04:05:54;6.95;;;4.22;;
21084;SDS011;34247;50.064;19.970;2022-10-16T04:06:58;10.15;;;4.53;;
21084;SDS011;34247;50.064;19.970;2022-10-16T04:08:02;8.05;;;4.30;;
21084;SDS011;34247;50.064;19.970;2022-10-16T04:09:06;7.07;;;3.80;;
21084;SDS011;34247;50.064;19.970;2022-10-16T04:10:10;10.57;;;4.45;;
21084;SDS011;34247;50.064;19.970;2022-10-16T04:11:14;10.40;;;4.07;;
21084;SDS011;34247;50.064;19.970;2022-10-16T04:12:18;8.45;;;4.40;;
21084;SDS011;34247;50.064;19.970;2022-10-16T04:13:23;9.43;;;4.75;;
21084;SDS011;34247;50.064;19.970;2022-10-16T04:14:27;5.50;;;3.97;;
21084;SDS011;34247;50.064;19.970;2022-10-16T04:15:34;7.97;;;4.18;;
21084;SDS011;34247;50.064;19.970;2022-10-16T04:16:37;7.72;;;4.20;;
21084;SDS011;34247;50.064;19.970;2022-10-16T04:17:41;6.18;;;3.53;;
21084;SDS011;34247;50.064;19.970;2022-10-16T04:18:45;10.38;;;3.83;;
21084;SDS011;34247;50.064;19.970;2022-10-16T04:19:49;7.63;;;4.28;;
21084;SDS011;34247;50.064;19.970;2022-10-16T04:20:56;7.25;;;4.53;;
21084;SDS011;34247;50.064;19.970;2022-10-16T04:22:05;7.03;;;4.25;;
21084;SDS011;34247;50.064;19.970;2022-10-16T04:23:09;8.07;;;3.83;;
21084;SDS011;34247;50.064;19.970;2022-10-16T04:24:13;6.90;;;3.70;;
21084;SDS011;34247;50.064;19.970;2022-10-16T04:25:16;4.88;;;3.92;;
21084;SDS011;34247;50.064;19.970;2022-10-16T04:26:21;4.95;;;3.30;;
21084;SDS011;34247;50.064;19.970;2022-10-16T04:27:25;5.78;;;3.40;;
21084;SDS011;34247;50.064;19.970;2022-10-16T04:28:29;4.60;;;3.70;;
21084;SDS011;34247;50.064;19.970;2022-10-16T04:29:34;8.52;;;4.30;;
21084;SDS011;34247;50.064;19.970;2022-10-16T04:30:38;8.05;;;3.78;;
21084;SDS011;34247;50.064;19.970;2022-10-16T04:31:42;8.73;;;5.50;;
21084;SDS011;34247;50.064;19.970;2022-10-16T04:32:49;8.73;;;4.43;;
21084;SDS011;34247;50.064;19.970;2022-10-16T04:33:54;9.40;;;5.07;;
21084;SDS011;34247;50.064;19.970;2022-10-16T04:34:58;10.77;;;4.90;;
21084;SDS011;34247;50.064;19.970;2022-10-16T04:36:05;7.00;;;3.53;;
21084;SDS011;34247;50.064;19.970;2022-10-16T04:37:10;8.95;;;5.07;;
21084;SDS011;34247;50.064;19.970;2022-10-16T04:38:13;8.43;;;4.47;;
21084;SDS011;34247;50.064;19.970;2022-10-16T04:39:17;8.13;;;4.25;;
21084;SDS011;34247;50.064;19.970;2022-10-16T04:40:21;6.07;;;3.88;;
21084;SDS011;34247;50.064;19.970;2022-10-16T04:41:25;6.25;;;4.00;;
21084;SDS011;34247;50.064;19.970;2022-10-16T04:42:29;8.80;;;4.60;;
21084;SDS011;34247;50.064;19.970;2022-10-16T04:43:33;7.25;;;4.45;;
21084;SDS011;34247;50.064;19.970;2022-10-16T04:44:37;7.68;;;4.60;;
21084;SDS011;34247;50.064;19.970;2022-10-16T04:45:41;6.57;;;3.70;;
21084;SDS011;34247;50.064;19.970;2022-10-16T04:46:45;6.50;;;4.10;;
21084;SDS011;34247;50.064;19.970;2022-10-16T04:47:49;13.90;;;3.60;;
21084;SDS011;34247;50.064;19.970;2022-10-16T04:48:53;6.05;;;4.28;;
21084;SDS011;34247;50.064;19.970;2022-10-16T04:49:56;7.15;;;4.22;;
21084;SDS011;34247;50.064;19.970;2022-10-16T04:51:02;9.43;;;3.45;;
21084;SDS011;34247;50.064;19.970;2022-10-16T04:52:06;5.47;;;3.17;;
21084;SDS011;34247;50.064;19.970;2022-10-16T04:53:12;8.95;;;4.28;;
21084;SDS011;34247;50.064;19.970;2022-10-16T04:54:16;7.65;;;3.88;;
21084;SDS011;34247;50.064;19.970;2022-10-16T04:55:20;7.53;;;4.38;;
21084;SDS011;34247;50.064;19.970;2022-10-16T04:56:24;5.28;;;3.45;;
21084;SDS011;34247;50.064;19.970;2022-10-16T04:57:28;8.73;;;3.50;;
21084;SDS011;34247;50.064;19.970;2022-10-16T04:58:32;6.70;;;3.70;;
21084;SDS011;34247;50.064;19.970;2022-10-16T04:59:36;7.35;;;3.53;;
21084;SDS011;34247;50.064;19.970;2022-10-16T05:00:39;5.53;;;3.42;;
21084;SDS011;34247;50.064;19.970;2022-10-16T05:01:43;8.90;;;4.38;;
21084;SDS011;34247;50.064;19.970;2022-10-16T05:02:49;6.50;;;4.28;;
21084;SDS011;34247;50.064;19.970;2022-10-16T05:03:53;7.97;;;4.85;;
21084;SDS011;34247;50.064;19.970;2022-10-16T05:04:57;7.47;;;4.30;;
21084;SDS011;34247;50.064;19.970;2022-10-16T05:06:01;5.20;;;3.65;;
21084;SDS011;34247;50.064;19.970;2022-10-16T05:07:07;5.55;;;3.60;;
21084;SDS011;34247;50.064;19.970;2022-10-16T05:08:12;5.68;;;3.35;;
21084;SDS011;34247;50.064;19.970;2022-10-16T05:09:17;12.13;;;4.38;;
21084;SDS011;34247;50.064;19.970;2022-10-16T05:10:21;8.73;;;5.13;;
21084;SDS011;34247;50.064;19.970;2022-10-16T05:11:25;6.95;;;3.95;;
21084;SDS011;34247;50.064;19.970;2022-10-16T05:12:29;7.05;;;5.40;;
21084;SDS011;34247;50.064;19.970;2022-10-16T05:13:34;6.45;;;4.28;;
21084;SDS011;34247;50.064;19.970;2022-10-16T05:14:38;5.47;;;3.15;;
21084;SDS011;34247;50.064;19.970;2022-10-16T05:15:42;8.65;;;3.63;;
21084;SDS011;34247;50.064;19.970;2022-10-16T05:16:51;10.00;;;4.40;;
21084;SDS011;34247;50.064;19.970;2022-10-16T05:17:55;7.80;;;5.18;;
21084;SDS011;34247;50.064;19.970;2022-10-16T05:18:59;10.20;;;4.75;;
21084;SDS011;34247;50.064;19.970;2022-10-16T05:20:23;16.23;;;6.95;;
21084;SDS011;34247;50.064;19.970;2022-10-16T05:21:27;16.73;;;8.82;;
21084;SDS011;34247;50.064;19.970;2022-10-16T05:22:31;28.95;;;14.65;;
21084;SDS011;34247;50.064;19.970;2022-10-16T05:23:35;21.17;;;12.55;;
21084;SDS011;34247;50.064;19.970;2022-10-16T05:24:39;18.15;;;9.02;;
21084;SDS011;34247;50.064;19.970;2022-10-16T05:25:43;15.30;;;6.25;;
21084;SDS011;34247;50.064;19.970;2022-10-16T05:27:01;8.18;;;4.57;;
21084;SDS011;34247;50.064;19.970;2022-10-16T05:28:04;9.77;;;5.30;;
21084;SDS011;34247;50.064;19.970;2022-10-16T05:29:10;6.07;;;3.92;;
21084;SDS011;34247;50.064;19.970;2022-10-16T05:30:15;7.75;;;4.97;;
21084;SDS011;34247;50.064;19.970;2022-10-16T05:31:20;6.53;;;3.40;;
21084;SDS011;34247;50.064;19.970;2022-10-16T05:32:25;8.18;;;4.75;;
21084;SDS011;34247;50.064;19.970;2022-10-16T05:33:29;12.13;;;5.78;;
21084;SDS011;34247;50.064;19.970;2022-10-16T05:34:33;9.07;;;5.95;;
21084;SDS011;34247;50.064;19.970;2022-10-16T05:35:37;18.73;;;6.65;;
21084;SDS011;34247;50.064;19.970;2022-10-16T05:36:40;8.30;;;5.30;;
21084;SDS011;34247;50.064;19.970;2022-10-16T05:37:44;11.27;;;5.45;;
21084;SDS011;34247;50.064;19.970;2022-10-16T05:38:50;17.42;;;4.40;;
21084;SDS011;34247;50.064;19.970;2022-10-16T05:39:55;5.82;;;4.05;;
21084;SDS011;34247;50.064;19.970;2022-10-16T05:40:58;8.55;;;5.43;;
21084;SDS011;34247;50.064;19.970;2022-10-16T05:42:02;8.52;;;4.80;;
21084;SDS011;34247;50.064;19.970;2022-10-16T05:43:09;10.35;;;4.68;;
21084;SDS011;34247;50.064;19.970;2022-10-16T05:44:14;8.52;;;4.18;;
21084;SDS011;34247;50.064;19.970;2022-10-16T05:45:18;6.82;;;3.80;;
21084;SDS011;34247;50.064;19.970;2022-10-16T05:46:22;6.85;;;4.32;;
21084;SDS011;34247;50.064;19.970;2022-10-16T05:47:25;7.10;;;4.13;;
21084;SDS011;34247;50.064;19.970;2022-10-16T05:48:31;7.47;;;4.28;;
21084;SDS011;34247;50.064;19.970;2022-10-16T05:49:36;8.60;;;5.03;;
21084;SDS011;34247;50.064;19.970;2022-10-16T05:50:43;7.85;;;4.75;;
21084;SDS011;34247;50.064;19.970;2022-10-16T05:51:46;12.25;;;4.03;;
21084;SDS011;34247;50.064;19.970;2022-10-16T05:52:50;7.63;;;4.63;;
21084;SDS011;34247;50.064;19.970;2022-10-16T05:53:54;4.75;;;3.22;;
21084;SDS011;34247;50.064;19.970;2022-10-16T05:54:58;9.57;;;4.43;;
21084;SDS011;34247;50.064;19.970;2022-10-16T05:56:03;7.18;;;4.43;;
21084;SDS011;34247;50.064;19.970;2022-10-16T05:57:10;6.88;;;5.18;;
21084;SDS011;34247;50.064;19.970;2022-10-16T05:58:14;5.72;;;4.18;;
21084;SDS011;34247;50.064;19.970;2022-10-16T05:59:18;5.60;;;3.65;;
21084;SDS011;34247;50.064;19.970;2022-10-16T06:00:21;7.18;;;4.70;;
21084;SDS011;34247;50.064;19.970;2022-10-16T06:01:25;12.77;;;4.93;;
21084;SDS011;34247;50.064;19.970;2022-10-16T06:02:29;7.47;;;4.18;;
21084;SDS011;34247;50.064;19.970;2022-10-16T06:03:33;6.25;;;4.32;;
21084;SDS011;34247;50.064;19.970;2022-10-16T06:04:38;5.80;;;3.95;;
21084;SDS011;34247;50.064;19.970;2022-10-16T06:05:42;6.15;;;4.20;;
21084;SDS011;34247;50.064;19.970;2022-10-16T06:06:46;12.32;;;5.38;;
21084;SDS011;34247;50.064;19.970;2022-10-16T06:07:49;6.20;;;3.55;;
21084;SDS011;34247;50.064;19.970;2022-10-16T06:08:54;6.53;;;3.88;;
21084;SDS011;34247;50.064;19.970;2022-10-16T06:09:59;8.02;;;4.10;;
21084;SDS011;34247;50.064;19.970;2022-10-16T06:11:03;8.38;;;4.38;;
21084;SDS011;34247;50.064;19.970;2022-10-16T06:12:10;12.15;;;4.30;;
21084;SDS011;34247;50.064;19.970;2022-10-16T06:13:15;5.05;;;4.32;;
21084;SDS011;34247;50.064;19.970;2022-10-16T06:14:19;7.25;;;4.55;;
21084;SDS011;34247;50.064;19.970;2022-10-16T06:15:22;5.13;;;3.38;;
21084;SDS011;34247;50.064;19.970;2022-10-16T06:16:26;6.50;;;3.63;;
21084;SDS011;34247;50.064;19.970;2022-10-16T06:17:31;7.00;;;4.63;;
21084;SDS011;34247;50.064;19.970;2022-10-16T06:18:34;5.90;;;4.15;;
21084;SDS011;34247;50.064;19.970;2022-10-16T06:19:39;7.05;;;4.45;;
21084;SDS011;34247;50.064;19.970;2022-10-16T06:20:43;10.05;;;4.22;;
21084;SDS011;34247;50.064;19.970;2022-10-16T06:21:46;6.57;;;4.28;;
21084;SDS011;34247;50.064;19.970;2022-10-16T06:22:50;7.10;;;3.35;;
21084;SDS011;34247;50.064;19.970;2022-10-16T06:23:54;6.82;;;4.35;;
21084;SDS011;34247;50.064;19.970;2022-10-16T06:24:59;11.18;;;4.00;;
21084;SDS011;34247;50.064;19.970;2022-10-16T06:26:10;5.05;;;3.40;;
21084;SDS011;34247;50.064;19.970;2022-10-16T06:27:16;12.18;;;4.45;;
21084;SDS011;34247;50.064;19.970;2022-10-16T06:28:20;8.40;;;4.97;;
21084;SDS011;34247;50.064;19.970;2022-10-16T06:29:24;5.88;;;3.95;;
21084;SDS011;34247;50.064;19.970;2022-10-16T06:30:27;9.38;;;4.13;;
21084;SDS011;34247;50.064;19.970;2022-10-16T06:31:31;9.80;;;5.18;;
21084;SDS011;34247;50.064;19.970;2022-10-16T06:32:36;7.13;;;3.83;;
21084;SDS011;34247;50.064;19.970;2022-10-16T06:33:40;7.55;;;4.85;;
21084;SDS011;34247;50.064;19.970;2022-10-16T06:34:44;10.60;;;3.83;;
21084;SDS011;34247;50.064;19.970;2022-10-16T06:35:48;13.75;;;4.40;;
21084;SDS011;34247;50.064;19.970;2022-10-16T06:36:52;8.80;;;4.28;;
21084;SDS011;34247;50.064;19.970;2022-10-16T06:37:56;8.60;;;4.63;;
21084;SDS011;34247;50.064;19.970;2022-10-16T06:39:00;7.22;;;4.22;;
21084;SDS011;34247;50.064;19.970;2022-10-16T06:40:04;8.20;;;4.75;;
21084;SDS011;34247;50.064;19.970;2022-10-16T06:41:16;9.27;;;5.05;;
21084;SDS011;34247;50.064;19.970;2022-10-16T06:42:23;13.60;;;7.35;;
21084;SDS011;34247;50.064;19.970;2022-10-16T06:43:28;13.93;;;7.30;;
21084;SDS011;34247;50.064;19.970;2022-10-16T06:44:36;11.95;;;5.18;;
21084;SDS011;34247;50.064;19.970;2022-10-16T06:45:40;10.93;;;4.00;;
21084;SDS011;34247;50.064;19.970;2022-10-16T06:46:43;7.35;;;4.57;;
21084;SDS011;34247;50.064;19.970;2022-10-16T06:47:47;9.85;;;4.35;;
21084;SDS011;34247;50.064;19.970;2022-10-16T06:48:54;14.13;;;6.60;;
21084;SDS011;34247;50.064;19.970;2022-10-16T06:49:58;12.80;;;6.68;;
21084;SDS011;34247;50.064;19.970;2022-10-16T06:52:21;12.18;;;7.05;;
21084;SDS011;34247;50.064;19.970;2022-10-16T06:53:26;10.32;;;5.50;;
21084;SDS011;34247;50.064;19.970;2022-10-16T06:54:45;6.95;;;4.65;;
21084;SDS011;34247;50.064;19.970;2022-10-16T06:55:50;16.05;;;6.10;;
21084;SDS011;34247;50.064;19.970;2022-10-16T06:56:54;7.32;;;4.03;;